Terminal Aerodrome Forecast
Issued by NWS Austin/San Antonio, TX

Current Version | Previous Version | Text Only | Print | Product List | Glossary On
Versions: 1 2 3 4 5 6 7 8 9 10 11 12 13 14 15 16 17
000
FTUS44 KEWX 312324
TAFAUS
TAF
KAUS 312324Z 0100/0206 14012KT P6SM FEW040 FEW060 SCT200
     FM010300 15007KT P6SM SCT200
     FM010900 18005KT P6SM BKN011
     FM011400 18006KT P6SM BKN025
     FM011600 18007KT P6SM BKN050
     FM012000 14014KT P6SM VCSH BKN060
     FM020200 14009KT P6SM SCT060=

USA.gov is the U.S. government's official web portal to all federal, state and local government web resources and services.